Time;durP1;ratioP1;P1;durP2;ratioP2;P2;SDS_P1;SDS_P2;PMS_P1;PMS_P2;Temp;Humidity;BMP_temperature;BMP_pressure;BME280_temperature;BME280_humidity;BME280_pressure;Samples;Min_cycle;Max_cycle;Signal;HPM_P1;HPM_P2
2022/08/06 00:00:17;;;;;;;;;2.00;1.00;;;;;19.27;37.77;102153.47;6311159;22;45368;-84
2022/08/06 00:02:42;;;;;;;;;1.67;1.67;;;;;19.46;37.68;102185.19;6312204;22;45413;-85
2022/08/06 00:05:08;;;;;;;;;0.67;0.67;;;;;19.42;37.71;102175.47;6311470;22;45989;-85
2022/08/06 00:07:34;;;;;;;;;1.33;1.33;;;;;19.27;38.32;102161.50;6311517;22;45396;-87
2022/08/06 00:10:00;;;;;;;;;0.67;0.67;;;;;19.28;38.15;102167.72;6341339;22;45340;-87
2022/08/06 00:12:25;;;;;;;;;1.00;1.00;;;;;19.38;38.18;102186.22;6339701;22;45218;-86
2022/08/06 00:14:50;;;;;;;;;2.00;2.00;;;;;19.21;38.17;102158.91;6340880;22;45598;-85
2022/08/06 00:17:18;;;;;;;;;1.00;1.00;;;;;19.32;38.35;102199.66;6312265;22;45274;-90
2022/08/06 00:19:44;;;;;;;;;1.67;1.00;;;;;19.31;38.18;102205.03;6312763;22;45255;-87
2022/08/06 00:22:10;;;;;;;;;1.00;1.00;;;;;18.90;38.63;102127.41;6338958;22;45518;-89
2022/08/06 00:24:35;;;;;;;;;1.00;1.00;;;;;19.14;38.39;102151.94;6315820;22;47339;-89
2022/08/06 00:27:01;;;;;;;;;1.00;1.00;;;;;19.03;38.59;102148.53;6314394;22;45117;-89
2022/08/06 00:29:26;;;;;;;;;1.00;1.00;;;;;19.04;38.84;102167.19;6341366;22;45236;-90
2022/08/06 00:31:51;;;;;;;;;3.00;1.00;;;;;19.11;38.90;102187.56;6340430;22;45641;-89
2022/08/06 00:34:17;;;;;;;;;2.00;1.00;;;;;18.93;39.11;102166.50;6314069;22;48234;-89
2022/08/06 00:36:42;;;;;;;;;1.00;1.00;;;;;19.09;39.12;102202.72;6314300;22;45191;-89
2022/08/06 00:39:08;;;;;;;;;2.67;1.33;;;;;18.84;39.41;102153.28;6341271;22;45267;-90
2022/08/06 00:41:34;;;;;;;;;1.33;1.00;;;;;19.08;39.00;102205.41;6314685;22;45476;-88
2022/08/06 00:44:00;;;;;;;;;1.00;1.00;;;;;19.06;39.18;102207.19;6314519;22;48132;-88
2022/08/06 00:46:26;;;;;;;;;3.67;2.00;;;;;18.68;39.26;102147.25;6314182;22;45850;-88
2022/08/06 00:48:52;;;;;;;;;1.00;1.00;;;;;18.88;39.42;102184.38;6314105;22;45255;-89
2022/08/06 00:51:17;;;;;;;;;2.00;1.00;;;;;18.99;39.24;102206.44;6342079;22;45379;-88
2022/08/06 00:53:43;;;;;;;;;2.00;1.00;;;;;18.99;39.43;102205.56;6314157;22;47484;-90
2022/08/06 00:56:09;;;;;;;;;0.67;0.67;;;;;18.95;39.82;102202.03;6314090;22;46333;-88
2022/08/06 00:58:35;;;;;;;;;1.00;1.00;;;;;18.81;39.73;102188.91;6340321;22;45355;-88
2022/08/06 01:01:00;;;;;;;;;1.00;1.00;;;;;18.47;39.51;102129.78;6340115;22;45723;-88
2022/08/06 01:03:25;;;;;;;;;1.33;1.33;;;;;18.76;39.81;102196.09;6340267;22;47070;-89
2022/08/06 01:05:51;;;;;;;;;1.67;1.67;;;;;18.45;40.21;102135.16;6344269;22;45097;-89
2022/08/06 01:08:16;;;;;;;;;1.33;1.33;;;;;18.72;39.91;102192.56;6342552;22;45101;-88
2022/08/06 01:10:42;;;;;;;;;1.00;1.00;;;;;18.51;40.02;102161.72;6314245;22;45205;-88
2022/08/06 01:13:08;;;;;;;;;1.00;1.00;;;;;18.52;40.57;102149.25;6340385;22;47575;-88
2022/08/06 01:15:36;;;;;;;;;3.67;2.00;;;;;18.42;40.14;102148.53;6314127;22;45192;-89
2022/08/06 01:18:11;;;;;;;;;2.00;1.00;;;;;18.38;40.56;102140.59;6315269;22;45236;-89
2022/08/06 01:21:00;;;;;;;;;1.67;1.00;;;;;18.67;40.58;102202.41;6314602;22;45382;-88
2022/08/06 01:23:53;;;;;;;;;1.50;1.50;;;;;18.45;40.64;102169.81;6313960;22;47989;-89
2022/08/06 01:26:34;;;;;;;;;1.00;1.00;;;;;18.59;40.87;102203.44;6314019;22;45359;-88
2022/08/06 01:29:09;;;;;;;;;1.00;1.00;;;;;18.39;40.87;102175.25;6314213;22;45203;-89
2022/08/06 01:31:43;;;;;;;;;1.00;1.00;;;;;18.64;40.55;102217.59;6341146;22;45564;-90
2022/08/06 01:34:35;;;;;;;;;1.00;1.00;;;;;18.54;40.57;102211.47;6314130;22;47239;-89
2022/08/06 01:37:14;;;;;;;;;1.00;1.00;;;;;18.43;41.11;102184.06;6323909;22;45215;-88
2022/08/06 01:39:42;;;;;;;;;4.33;2.00;;;;;18.32;41.01;102175.34;6335780;22;45216;-88
2022/08/06 01:42:09;;;;;;;;;3.00;3.00;;;;;18.58;41.35;102214.97;6313990;22;45420;-89
2022/08/06 01:44:38;;;;;;;;;2.00;2.00;;;;;18.57;41.04;102224.78;6341431;22;47058;-88
2022/08/06 01:47:10;;;;;;;;;2.00;2.00;;;;;18.54;41.25;102222.16;6314826;22;45722;-88
2022/08/06 01:49:39;;;;;;;;;2.00;2.00;;;;;18.35;41.53;102186.84;6340263;22;45270;-87
2022/08/06 01:52:07;;;;;;;;;2.00;2.00;;;;;18.32;41.43;102188.69;6313465;22;45501;-89
2022/08/06 01:54:40;;;;;;;;;2.00;1.00;;;;;18.06;41.67;102158.75;6341420;22;45365;-89
2022/08/06 01:57:07;;;;;;;;;2.00;2.00;;;;;18.41;41.51;102210.75;6340498;22;45145;-87
2022/08/06 01:59:36;;;;;;;;;2.00;1.67;;;;;18.26;41.78;102194.97;6315907;22;44804;-88
2022/08/06 02:02:05;;;;;;;;;1.00;1.00;;;;;18.30;41.65;102210.88;6341329;22;45251;-89
2022/08/06 02:04:39;;;;;;;;;2.00;2.00;;;;;18.21;41.64;102196.81;6341282;22;48128;-90
2022/08/06 02:07:09;;;;;;;;;1.67;1.67;;;;;18.33;41.98;102223.28;6315352;22;45638;-88
2022/08/06 02:09:38;;;;;;;;;1.00;1.00;;;;;18.27;41.95;102205.59;6343551;22;45357;-89
2022/08/06 02:12:09;;;;;;;;;2.00;0.67;;;;;18.15;42.17;102194.19;6344309;22;45096;-89
2022/08/06 02:14:42;;;;;;;;;2.00;1.00;;;;;18.26;42.28;102216.28;6316258;22;47142;-88
2022/08/06 02:17:10;;;;;;;;;2.00;2.00;;;;;18.24;41.96;102210.09;6315196;22;45342;-90
2022/08/06 02:19:37;;;;;;;;;2.00;2.00;;;;;18.03;42.38;102176.56;6316051;22;45342;-89
2022/08/06 02:22:03;;;;;;;;;3.00;2.67;;;;;18.15;42.40;102203.09;6315252;22;45182;-90
2022/08/06 02:24:31;;;;;;;;;1.00;1.00;;;;;17.93;42.49;102169.59;6316252;22;47534;-89
2022/08/06 02:27:00;;;;;;;;;2.67;1.00;;;;;18.13;42.47;102209.34;6316838;22;45322;-89
2022/08/06 02:29:27;;;;;;;;;2.00;2.00;;;;;17.96;42.57;102180.19;6341976;22;45219;-88
2022/08/06 02:31:53;;;;;;;;;1.67;1.00;;;;;18.17;42.78;102219.06;6341319;22;45164;-89
2022/08/06 02:34:20;;;;;;;;;3.00;2.00;;;;;17.82;42.62;102167.91;6315717;22;47953;-90
2022/08/06 02:36:52;;;;;;;;;1.33;1.00;;;;;17.95;42.26;102195.31;6342156;22;45384;-89
2022/08/06 02:39:36;;;;;;;;;1.00;1.00;;;;;17.92;42.78;102198.00;6315722;22;45217;-89
2022/08/06 02:42:08;;;;;;;;;1.33;1.33;;;;;18.02;42.71;102212.13;6343785;22;45193;-89
2022/08/06 02:44:46;;;;;;;;;2.00;2.00;;;;;17.99;42.60;102215.72;6314528;22;47402;-89
2022/08/06 02:47:40;;;;;;;;;2.00;2.00;;;;;17.98;42.88;102219.25;6340997;22;45168;-89
2022/08/06 02:50:08;;;;;;;;;1.00;1.00;;;;;17.79;42.93;102185.72;6329507;22;45195;-88
2022/08/06 02:52:48;;;;;;;;;2.00;2.00;;;;;17.78;42.97;102192.81;6344385;22;45157;-89
2022/08/06 02:55:19;;;;;;;;;1.00;1.00;;;;;17.72;42.87;102186.63;6342924;22;45340;-88
2022/08/06 02:57:51;;;;;;;;;1.67;1.67;;;;;17.70;42.76;102188.47;6315080;22;45284;-88
2022/08/06 03:00:17;;;;;;;;;1.67;1.00;;;;;17.82;42.57;102205.22;6342757;22;45155;-89
2022/08/06 03:02:45;;;;;;;;;1.33;1.33;;;;;17.38;43.04;102139.94;6314589;22;45935;-88
2022/08/06 03:05:15;;;;;;;;;1.33;1.33;;;;;17.61;43.15;102168.09;6314695;22;47360;-88
2022/08/06 03:07:41;;;;;;;;;1.00;1.00;;;;;17.58;42.99;102165.47;6315968;22;45400;-87
2022/08/06 03:10:08;;;;;;;;;2.33;1.67;;;;;17.52;43.15;102160.22;6341868;22;45247;-89
2022/08/06 03:12:36;;;;;;;;;1.00;1.00;;;;;17.57;42.90;102175.25;6341527;22;45522;-89
2022/08/06 03:15:03;;;;;;;;;2.00;1.33;;;;;17.60;42.93;102188.53;6314897;22;47260;-89
2022/08/06 03:17:31;;;;;;;;;1.00;1.00;;;;;17.74;42.97;102201.72;6343040;22;45234;-88
2022/08/06 03:19:59;;;;;;;;;1.00;1.00;;;;;17.62;43.16;102189.41;6344101;22;45171;-89
2022/08/06 03:22:27;;;;;;;;;2.50;2.50;;;;;17.46;42.92;102169.16;6314791;22;45244;-88
2022/08/06 03:24:54;;;;;;;;;3.25;2.00;;;;;17.60;42.94;102188.53;6340721;22;47308;-88
2022/08/06 03:27:20;;;;;;;;;1.75;1.75;;;;;17.48;43.17;102178.03;6340645;22;45423;-89
2022/08/06 03:29:48;;;;;;;;;2.00;2.00;;;;;17.19;43.66;102125.03;6314962;22;45252;-88
2022/08/06 03:32:16;;;;;;;;;1.75;1.75;;;;;17.27;43.45;102139.16;6314481;22;45215;-88
2022/08/06 03:34:42;;;;;;;;;1.50;1.50;;;;;17.28;43.86;102162.22;6342566;22;47178;-90
2022/08/06 03:37:09;;;;;;;;;2.50;1.50;;;;;17.56;43.76;102207.22;6315377;22;45393;-89
2022/08/06 03:39:37;;;;;;;;;1.50;1.25;;;;;17.46;43.87;102192.25;6343258;22;45171;-89
2022/08/06 03:42:03;;;;;;;;;2.00;2.00;;;;;17.52;43.96;102206.38;6314819;22;45331;-89
2022/08/06 03:44:28;;;;;;;;;3.00;2.00;;;;;17.34;43.90;102187.88;6341404;22;46908;-90
2022/08/06 03:47:00;;;;;;;;;2.75;2.00;;;;;17.48;44.17;102203.72;6316270;22;45172;-90
2022/08/06 03:49:56;;;;;;;;;2.33;2.33;;;;;17.47;44.10;102200.19;6315978;22;45205;-89
2022/08/06 03:52:26;;;;;;;;;3.00;2.25;;;;;17.13;43.92;102151.69;6296733;22;45206;-88
2022/08/06 03:54:55;;;;;;;;;2.75;2.00;;;;;17.10;44.07;102141.94;6315020;22;47254;-90
2022/08/06 03:57:28;;;;;;;;;4.00;3.00;;;;;16.85;43.90;102112.00;6315247;22;45399;-89
2022/08/06 04:00:00;;;;;;;;;1.25;1.25;;;;;17.40;44.42;102222.44;6315005;22;45423;-89
2022/08/06 04:02:48;;;;;;;;;2.00;2.00;;;;;17.00;43.89;102144.69;6315938;22;45451;-89
2022/08/06 04:05:20;;;;;;;;;2.00;2.00;;;;;17.35;44.26;102217.16;6315556;22;47368;-89
2022/08/06 04:08:07;;;;;;;;;3.00;1.33;;;;;17.32;44.12;102208.31;6305122;22;45277;-89
2022/08/06 04:10:40;;;;;;;;;1.75;1.75;;;;;17.29;44.43;102216.31;6315321;22;45254;-90
2022/08/06 04:13:08;;;;;;;;;2.00;1.00;;;;;17.24;44.10;102210.16;6315274;22;45969;-90
2022/08/06 04:15:38;;;;;;;;;0.33;0.33;;;;;17.14;44.50;102206.69;6315039;22;46989;-89
2022/08/06 04:18:12;;;;;;;;;1.00;1.00;;;;;16.98;44.49;102189.97;6340652;22;45127;-89
2022/08/06 04:20:41;;;;;;;;;2.00;1.75;;;;;17.13;44.53;102219.13;6314813;22;45214;-89
2022/08/06 04:23:07;;;;;;;;;4.00;3.00;;;;;16.89;44.42;102179.38;6314283;22;45819;-89
2022/08/06 04:25:38;;;;;;;;;1.25;1.00;;;;;16.75;44.31;102160.81;6341348;22;47349;-90
2022/08/06 04:28:06;;;;;;;;;2.00;2.00;;;;;17.04;44.20;102213.84;6342871;22;45251;-89
2022/08/06 04:30:34;;;;;;;;;1.25;1.00;;;;;16.93;44.50;102197.97;6341568;22;45302;-89
2022/08/06 04:33:02;;;;;;;;;3.50;2.50;;;;;17.12;44.31;102229.75;6341259;22;45441;-89
2022/08/06 04:35:31;;;;;;;;;3.00;3.00;;;;;17.03;44.08;102220.06;6341523;22;45262;-89
2022/08/06 04:38:00;;;;;;;;;2.00;2.00;;;;;17.08;43.77;102233.31;6343125;22;45377;-89
2022/08/06 04:40:26;;;;;;;;;1.75;1.75;;;;;17.09;44.28;102241.31;6315935;22;45326;-89
2022/08/06 04:42:52;;;;;;;;;1.00;1.00;;;;;17.08;43.65;102239.56;6317249;22;45558;-89
2022/08/06 04:45:18;;;;;;;;;1.75;0.50;;;;;17.06;43.78;102236.03;6316185;22;47576;-89
2022/08/06 04:47:44;;;;;;;;;2.00;1.00;;;;;17.04;43.73;102245.78;6317692;22;45282;-89
2022/08/06 04:50:10;;;;;;;;;1.50;1.50;;;;;16.93;44.07;102234.31;6345570;22;45206;-90
2022/08/06 04:52:36;;;;;;;;;2.00;2.00;;;;;16.91;43.86;102244.97;6320722;22;45371;-89
2022/08/06 04:55:02;;;;;;;;;1.00;1.00;;;;;16.47;44.01;102157.44;6319981;22;48225;-89
2022/08/06 04:57:27;;;;;;;;;3.00;3.00;;;;;16.53;44.03;102170.69;6318930;22;45957;-90
2022/08/06 04:59:52;;;;;;;;;3.00;2.00;;;;;16.69;44.11;102220.25;6345755;22;45232;-88
2022/08/06 05:02:18;;;;;;;;;3.00;3.00;;;;;16.98;44.21;102269.78;6321750;22;45292;-88
2022/08/06 05:04:45;;;;;;;;;1.00;1.00;;;;;16.59;44.14;102202.56;6323118;22;47330;-88
2022/08/06 05:07:20;;;;;;;;;3.25;2.00;;;;;16.90;44.27;102258.28;6324551;22;44681;-89
2022/08/06 05:09:46;;;;;;;;;2.00;2.00;;;;;16.73;44.16;102229.97;6324236;22;44633;-89
2022/08/06 05:12:19;;;;;;;;;1.00;1.00;;;;;16.56;44.18;102196.38;6324516;22;45109;-88
2022/08/06 05:14:50;;;;;;;;;2.67;2.67;;;;;16.99;44.18;102274.19;6352251;22;47078;-88
2022/08/06 05:17:22;;;;;;;;;3.00;2.00;;;;;16.64;44.23;102218.50;6325378;22;45641;-89
2022/08/06 05:19:53;;;;;;;;;2.25;1.00;;;;;17.00;44.47;102275.06;6328473;22;45117;-88
2022/08/06 05:22:19;;;;;;;;;2.25;2.25;;;;;16.73;44.58;102223.75;6329305;22;45553;-87
2022/08/06 05:24:47;;;;;;;;;1.33;1.00;;;;;16.60;44.30;102206.09;6332738;22;47121;-87
2022/08/06 05:27:14;;;;;;;;;2.00;2.00;;;;;16.63;44.17;102209.63;6332610;22;45062;-88
2022/08/06 05:29:40;;;;;;;;;3.75;3.00;;;;;16.65;44.46;102218.50;6332262;22;44586;-88
2022/08/06 05:32:06;;;;;;;;;1.00;1.00;;;;;16.83;44.30;102249.44;6324821;22;45486;-88
2022/08/06 05:34:31;;;;;;;;;1.33;1.33;;;;;16.98;43.98;102267.13;6309068;22;46989;-87
2022/08/06 05:36:57;;;;;;;;;1.00;1.00;;;;;17.01;44.10;102280.41;6310436;22;45353;-88
2022/08/06 05:39:22;;;;;;;;;2.00;2.00;;;;;16.88;44.15;102254.75;6309619;22;45345;-87
2022/08/06 05:41:48;;;;;;;;;1.33;1.33;;;;;17.09;44.04;102285.69;6310506;22;46157;-87
2022/08/06 05:44:13;;;;;;;;;2.00;2.00;;;;;16.74;43.72;102230.84;6309892;22;47124;-87
2022/08/06 05:46:47;;;;;;;;;1.00;0.00;;;;;16.68;43.88;102213.16;6309809;22;45358;-87
2022/08/06 05:49:17;;;;;;;;;1.00;1.00;;;;;16.87;43.80;102243.22;6311075;22;45338;-88
2022/08/06 05:51:49;;;;;;;;;3.00;2.00;;;;;16.74;43.51;102225.53;6309232;22;45433;-87
2022/08/06 05:54:21;;;;;;;;;1.33;1.00;;;;;17.12;43.71;102288.31;6311733;22;45596;-87
2022/08/06 05:56:50;;;;;;;;;2.00;1.00;;;;;16.94;43.65;102252.94;6309259;22;45940;-88
2022/08/06 05:59:24;;;;;;;;;3.25;3.00;;;;;16.83;43.51;102229.94;6309791;22;45342;-90
2022/08/06 06:01:50;;;;;;;;;0.00;0.00;;;;;16.82;43.89;102220.22;6310660;22;45437;-89
2022/08/06 06:04:16;;;;;;;;;2.00;1.00;;;;;16.73;43.90;102206.03;6310887;22;47568;-87
2022/08/06 06:06:43;;;;;;;;;4.00;2.67;;;;;17.22;43.62;102281.16;6309832;22;45562;-87
2022/08/06 06:09:09;;;;;;;;;2.00;2.00;;;;;16.96;43.87;102235.19;6310030;22;45383;-87
2022/08/06 06:11:37;;;;;;;;;1.33;1.00;;;;;17.40;43.40;102303.22;6309774;22;45223;-87
2022/08/06 06:14:03;;;;;;;;;2.00;0.00;;;;;17.29;43.54;102266.91;6310046;22;48234;-87
2022/08/06 06:16:31;;;;;;;;;1.00;1.00;;;;;17.49;43.28;102293.41;6314033;22;45658;-87
2022/08/06 06:19:14;;;;;;;;;1.00;1.00;;;;;17.53;43.41;102295.13;6309325;22;45248;-88
2022/08/06 06:21:55;;;;;;;;;1.00;1.00;;;;;17.56;43.56;102295.09;6308901;22;45540;-85
2022/08/06 06:24:36;;;;;;;;;2.00;2.00;;;;;17.62;43.42;102295.06;6309006;22;47259;-87
2022/08/06 06:27:05;;;;;;;;;3.33;2.00;;;;;17.38;43.51;102250.88;6309034;22;45211;-88
2022/08/06 06:29:53;;;;;;;;;2.00;0.00;;;;;17.69;43.17;102296.75;6312104;22;45201;-88
2022/08/06 06:32:27;;;;;;;;;1.00;1.00;;;;;17.72;43.06;102293.19;6310759;22;45314;-87
2022/08/06 06:35:08;;;;;;;;;2.00;1.00;;;;;17.30;43.14;102228.75;6308733;22;47174;-86
2022/08/06 06:37:33;;;;;;;;;4.67;3.00;;;;;17.66;43.21;102282.59;6308978;22;45287;-87
2022/08/06 06:40:16;;;;;;;;;1.00;1.00;;;;;17.80;43.22;102304.69;6311337;22;45085;-87
2022/08/06 06:43:09;;;;;;;;;3.00;3.00;;;;;17.84;42.80;102298.47;6309765;22;45180;-88
2022/08/06 06:45:59;;;;;;;;;1.33;1.33;;;;;17.85;42.71;102301.13;6309023;22;46984;-88
2022/08/06 06:48:33;;;;;;;;;1.00;1.00;;;;;17.72;42.87;102278.13;6309240;22;45799;-89
2022/08/06 06:51:05;;;;;;;;;0.00;0.00;;;;;17.73;42.49;102265.69;6309129;22;45224;-86
2022/08/06 06:53:35;;;;;;;;;2.00;2.00;;;;;17.89;42.37;102296.63;6310835;22;45392;-88
2022/08/06 06:56:02;;;;;;;;;1.75;1.00;;;;;17.98;42.52;102301.00;6311173;22;46545;-85
2022/08/06 06:58:48;;;;;;;;;3.00;3.00;;;;;18.02;42.35;102295.63;6310321;22;45331;-88
2022/08/06 07:01:16;;;;;;;;;1.00;1.00;;;;;17.93;41.86;102274.38;6313759;22;45276;-87
2022/08/06 07:03:44;;;;;;;;;1.67;1.67;;;;;18.04;41.85;102279.59;6341177;22;45152;-83
2022/08/06 07:06:11;;;;;;;;;0.67;0.67;;;;;18.19;42.09;102302.56;6309136;22;47098;-86
2022/08/06 07:08:44;;;;;;;;;1.00;1.00;;;;;18.25;41.80;102305.16;6313798;22;45370;-88
2022/08/06 07:11:15;;;;;;;;;3.00;2.33;;;;;18.27;41.58;102306.03;6314330;22;45224;-88
2022/08/06 07:13:43;;;;;;;;;2.00;2.00;;;;;18.26;41.52;102297.16;6339508;22;45310;-85
2022/08/06 07:16:12;;;;;;;;;2.67;1.00;;;;;18.29;41.03;102298.91;6313576;22;46035;-86
2022/08/06 07:18:38;;;;;;;;;1.33;1.33;;;;;18.48;40.98;102320.91;6313573;22;45302;-88
2022/08/06 07:21:05;;;;;;;;;2.00;2.00;;;;;18.53;40.68;102319.09;6314129;22;45298;-87
2022/08/06 07:23:32;;;;;;;;;2.33;2.33;;;;;18.37;40.26;102289.03;6313997;22;45312;-87
2022/08/06 07:25:59;;;;;;;;;2.33;2.33;;;;;18.50;40.32;102314.66;6313809;22;47286;-87
2022/08/06 07:28:26;;;;;;;;;2.00;2.00;;;;;18.63;40.05;102323.41;6313287;22;45277;-86
2022/08/06 07:30:52;;;;;;;;;2.33;2.33;;;;;18.65;39.93;102318.03;6314258;22;45401;-87
2022/08/06 07:33:18;;;;;;;;;0.00;0.00;;;;;18.67;40.11;102306.44;6340174;22;45895;-87
2022/08/06 07:35:46;;;;;;;;;2.00;2.00;;;;;18.83;39.40;102327.66;6339683;22;47521;-86
2022/08/06 07:38:15;;;;;;;;;2.00;2.00;;;;;18.92;39.66;102332.84;6314676;22;45231;-87
2022/08/06 07:40:51;;;;;;;;;1.00;1.00;;;;;19.00;39.01;102325.63;6314058;22;45197;-86
2022/08/06 07:43:21;;;;;;;;;1.00;1.00;;;;;19.07;38.97;102324.66;6313275;22;45916;-87
2022/08/06 07:45:48;;;;;;;;;1.00;1.00;;;;;19.00;38.84;102301.59;6339721;22;47024;-87
2022/08/06 07:48:18;;;;;;;;;1.00;1.00;;;;;19.06;38.43;102297.97;6312630;22;45845;-86
2022/08/06 07:50:49;;;;;;;;;2.00;2.00;;;;;19.21;38.01;102315.56;6339867;22;45399;-86
2022/08/06 07:53:15;;;;;;;;;1.00;1.00;;;;;19.34;38.47;102322.50;6339958;22;45560;-86
2022/08/06 07:55:43;;;;;;;;;1.00;1.00;;;;;19.46;37.88;102326.75;6313198;22;47573;-83
2022/08/06 07:58:09;;;;;;;;;0.67;0.67;;;;;19.53;38.20;102323.09;6339360;22;45296;-83
2022/08/06 08:00:36;;;;;;;;;0.33;0.33;;;;;19.57;37.96;102309.66;6339125;22;45272;-82
2022/08/06 08:08:32;;;;;;;;;0.00;0.00;;;;;19.90;36.92;102325.19;6340756;22;45190;-81
2022/08/06 08:10:58;;;;;;;;;1.67;1.00;;;;;20.07;36.90;102332.91;6339308;22;45181;-79
2022/08/06 08:13:25;;;;;;;;;4.00;1.67;;;;;20.12;36.41;102318.53;6341045;22;45202;-79
2022/08/06 08:15:51;;;;;;;;;3.00;1.00;;;;;20.24;36.36;102328.16;6340646;22;45148;-80
2022/08/06 08:18:17;;;;;;;;;0.67;0.67;;;;;20.31;36.23;102324.44;6340743;22;45384;-80
2022/08/06 08:20:45;;;;;;;;;0.67;0.00;;;;;20.42;36.16;102322.47;6312889;22;45391;-80
2022/08/06 08:23:14;;;;;;;;;1.00;1.00;;;;;20.51;35.57;102326.75;6312192;22;45346;-80
2022/08/06 08:25:39;;;;;;;;;1.00;1.00;;;;;20.63;35.77;102339.00;6311848;22;48072;-81
2022/08/06 08:28:06;;;;;;;;;1.00;1.00;;;;;20.67;35.53;102333.56;6311609;22;45211;-80
2022/08/06 08:30:31;;;;;;;;;1.00;1.00;;;;;20.77;35.19;102325.34;6338948;22;45247;-79
2022/08/06 08:32:56;;;;;;;;;1.00;1.00;;;;;20.91;35.15;102328.63;6340510;22;45344;-79
2022/08/06 08:35:22;;;;;;;;;1.33;0.67;;;;;20.99;34.80;102324.00;6340545;22;46423;-77
2022/08/06 08:37:47;;;;;;;;;0.67;0.67;;;;;21.12;34.64;102327.28;6337066;22;45147;-80
2022/08/06 08:40:13;;;;;;;;;1.00;0.33;;;;;21.19;34.26;102325.34;6311458;22;45303;-79
2022/08/06 08:42:55;;;;;;;;;1.33;0.33;;;;;21.20;34.46;102311.91;6312034;22;45972;-79
2022/08/06 08:45:21;;;;;;;;;2.00;0.00;;;;;21.26;33.97;102309.09;6338440;22;47234;-79
2022/08/06 08:47:51;;;;;;;;;0.67;0.67;;;;;21.38;33.55;102310.63;6339601;22;45338;-79
2022/08/06 08:50:20;;;;;;;;;0.00;0.00;;;;;21.48;34.08;102306.81;6311940;22;45225;-79
2022/08/06 08:52:48;;;;;;;;;1.00;1.00;;;;;21.62;33.55;102322.53;6311717;22;45196;-79
2022/08/06 08:55:17;;;;;;;;;0.00;0.00;;;;;21.62;33.50;102319.00;6312201;22;47307;-79
2022/08/06 08:57:42;;;;;;;;;3.00;1.00;;;;;21.67;33.59;102317.09;6311784;22;45220;-80
2022/08/06 09:00:09;;;;;;;;;1.00;1.00;;;;;21.72;33.36;102313.34;6337765;22;45214;-79
2022/08/06 09:02:37;;;;;;;;;2.67;2.67;;;;;21.77;33.06;102316.81;6340170;22;45428;-79
2022/08/06 09:05:04;;;;;;;;;2.00;1.00;;;;;21.83;32.97;102309.53;6311268;22;46773;-82
2022/08/06 09:07:31;;;;;;;;;1.00;1.00;;;;;21.91;32.89;102319.13;6311849;22;45287;-87
2022/08/06 09:09:59;;;;;;;;;0.33;0.33;;;;;21.95;33.00;102310.09;6340179;22;45241;-82
2022/08/06 09:12:25;;;;;;;;;2.00;2.00;;;;;22.05;32.72;102308.03;6312480;22;45225;-81
2022/08/06 09:14:50;;;;;;;;;1.00;1.00;;;;;22.11;32.68;102318.63;6340871;22;46051;-83
2022/08/06 09:17:16;;;;;;;;;1.00;1.00;;;;;22.19;33.04;102319.34;6313393;22;45388;-80
2022/08/06 09:19:42;;;;;;;;;1.00;1.00;;;;;22.23;32.63;102309.38;6341057;22;45420;-79
2022/08/06 09:22:08;;;;;;;;;2.00;2.00;;;;;22.32;32.53;102327.94;6340481;22;45291;-80
2022/08/06 09:24:34;;;;;;;;;0.67;0.67;;;;;22.34;32.52;102328.75;6312170;22;46930;-81
2022/08/06 09:27:16;;;;;;;;;2.00;1.00;;;;;22.40;32.01;102328.59;6311679;22;45278;-81
2022/08/06 09:29:49;;;;;;;;;0.00;0.00;;;;;22.50;32.32;102339.06;6312545;22;45469;-81
2022/08/06 09:32:42;;;;;;;;;1.00;1.00;;;;;22.56;32.55;102331.72;6312070;22;45465;-82
2022/08/06 09:35:28;;;;;;;;;0.67;0.67;;;;;22.57;31.69;102321.88;6312141;22;47028;-83
2022/08/06 09:38:04;;;;;;;;;0.33;0.33;;;;;22.61;31.79;102308.31;6338071;22;45874;-81
2022/08/06 09:40:30;;;;;;;;;1.00;1.00;;;;;22.67;31.94;102318.00;6312228;22;45254;-79
2022/08/06 09:42:56;;;;;;;;;1.67;1.00;;;;;22.73;31.72;102315.13;6312404;22;45168;-81
2022/08/06 09:45:23;;;;;;;;;1.00;1.00;;;;;22.79;31.65;102322.13;6312464;22;47959;-79
2022/08/06 09:48:00;;;;;;;;;1.00;1.00;;;;;22.87;31.44;102337.06;6337743;22;45444;-81
2022/08/06 09:50:41;;;;;;;;;0.67;0.67;;;;;22.87;31.47;102326.31;6312363;22;45347;-80
2022/08/06 09:53:07;;;;;;;;;2.00;1.00;;;;;22.92;31.45;102326.19;6311221;22;45945;-81
2022/08/06 09:55:34;;;;;;;;;1.00;1.00;;;;;22.89;31.14;102316.44;6310956;22;47125;-81
2022/08/06 09:58:00;;;;;;;;;1.00;1.00;;;;;22.90;31.16;102315.50;6340596;22;45266;-81
2022/08/06 10:00:28;;;;;;;;;1.00;1.00;;;;;22.93;31.22;102311.81;6311502;22;45477;-80
2022/08/06 10:02:58;;;;;;;;;0.67;0.67;;;;;22.98;31.18;102314.41;6310940;22;45407;-80
2022/08/06 10:05:25;;;;;;;;;1.00;1.00;;;;;23.01;31.12;102309.81;6306967;22;48099;-79
2022/08/06 10:08:09;;;;;;;;;2.00;2.00;;;;;23.17;30.84;102323.66;6337303;22;45365;-80
2022/08/06 10:10:46;;;;;;;;;2.00;2.00;;;;;23.23;30.99;102315.44;6308786;22;45809;-82
2022/08/06 10:13:26;;;;;;;;;3.00;0.00;;;;;23.28;30.83;102312.56;6308014;22;45609;-80
2022/08/06 10:15:58;;;;;;;;;1.00;1.00;;;;;23.31;30.58;102310.69;6308620;22;46145;-82
2022/08/06 10:18:34;;;;;;;;;2.00;2.00;;;;;23.28;30.58;102300.03;6309381;22;45278;-83
2022/08/06 10:21:11;;;;;;;;;1.33;1.33;;;;;23.32;30.32;102301.69;6310547;22;45483;-82
2022/08/06 10:23:39;;;;;;;;;2.00;2.00;;;;;23.45;30.53;102312.06;6339048;22;45413;-81
2022/08/06 10:26:08;;;;;;;;;0.00;0.00;;;;;23.43;29.86;102298.66;6340728;22;45471;-81
2022/08/06 10:28:35;;;;;;;;;2.00;1.00;;;;;23.42;30.38;102304.09;6310607;22;45290;-81
2022/08/06 10:31:03;;;;;;;;;3.67;2.67;;;;;23.43;30.57;102303.16;6311627;22;45322;-81
2022/08/06 10:33:33;;;;;;;;;0.67;0.00;;;;;23.44;30.02;102299.53;6338250;22;45215;-80
2022/08/06 10:36:09;;;;;;;;;0.00;0.00;;;;;23.43;30.33;102290.59;6338994;22;45250;-82
2022/08/06 10:38:37;;;;;;;;;4.00;4.00;;;;;23.52;30.11;102290.31;6339623;22;45252;-80
2022/08/06 10:41:08;;;;;;;;;2.33;2.00;;;;;23.64;30.14;102297.06;6310604;22;45365;-81
2022/08/06 10:43:35;;;;;;;;;0.67;0.00;;;;;23.66;29.91;102288.97;6336123;22;45395;-79
2022/08/06 10:46:06;;;;;;;;;1.33;1.33;;;;;23.73;29.25;102291.38;6311212;22;46937;-78
2022/08/06 10:48:33;;;;;;;;;0.67;0.67;;;;;23.77;28.59;102292.19;6339681;22;45306;-79
2022/08/06 10:51:00;;;;;;;;;0.33;0.33;;;;;23.83;28.67;102294.66;6339622;22;45259;-79
2022/08/06 10:53:27;;;;;;;;;2.00;1.33;;;;;23.96;28.92;102287.03;6339466;22;45267;-79
2022/08/06 10:55:53;;;;;;;;;1.00;1.00;;;;;23.95;28.25;102274.50;6310969;22;47270;-78
2022/08/06 10:58:19;;;;;;;;;2.00;2.00;;;;;24.03;28.32;102276.94;6339620;22;45263;-78
2022/08/06 11:00:45;;;;;;;;;3.67;2.67;;;;;24.21;28.09;102282.53;6338631;22;45376;-78
2022/08/06 11:03:19;;;;;;;;;1.00;1.00;;;;;24.24;27.98;102260.00;6338994;22;45287;-77
2022/08/06 11:05:55;;;;;;;;;1.33;1.33;;;;;24.40;27.66;102273.78;6311535;22;48248;-81
2022/08/06 11:08:30;;;;;;;;;12.75;12.25;;;;;24.49;27.92;102270.78;6308959;22;45858;-78
2022/08/06 11:11:16;;;;;;;;;2.33;2.33;;;;;24.56;27.66;102277.69;6311037;22;45467;-78
2022/08/06 11:14:05;;;;;;;;;6.25;4.25;;;;;24.62;27.15;102265.81;6310603;22;45255;-78
2022/08/06 11:16:32;;;;;;;;;10.00;8.75;;;;;24.72;26.83;102263.63;6339168;22;45302;-78
2022/08/06 11:19:04;;;;;;;;;6.25;5.50;;;;;24.83;26.69;102256.00;6338660;22;45326;-78
2022/08/06 11:21:43;;;;;;;;;3.00;3.00;;;;;24.89;26.69;102254.91;6310604;22;45592;-79
2022/08/06 11:24:09;;;;;;;;;3.00;2.00;;;;;24.98;26.64;102258.09;6340012;22;45410;-78
2022/08/06 11:26:40;;;;;;;;;2.00;2.00;;;;;24.98;26.19;102252.72;6309119;22;46146;-79
2022/08/06 11:29:10;;;;;;;;;2.67;2.67;;;;;25.08;26.71;102245.13;6337668;22;45242;-78
2022/08/06 11:31:39;;;;;;;;;2.00;2.00;;;;;25.17;26.50;102231.31;6310714;22;45425;-78
2022/08/06 11:34:10;;;;;;;;;1.33;1.33;;;;;25.30;26.08;102234.38;6339035;22;45339;-78
2022/08/06 11:36:58;;;;;;;;;2.00;2.00;;;;;25.43;25.68;102241.00;6311565;22;46931;-78
2022/08/06 11:39:27;;;;;;;;;1.00;1.00;;;;;25.60;25.28;102239.41;6338816;22;45322;-78
2022/08/06 11:41:59;;;;;;;;;1.67;1.67;;;;;25.69;26.36;102230.94;6310261;22;45404;-78